Time;durP1;ratioP1;P1;durP2;ratioP2;P2;SDS_P1;SDS_P2;PMS_P1;PMS_P2;Temp;Humidity;BMP_temperature;BMP_pressure;BME280_temperature;BME280_humidity;BME280_pressure;Samples;Min_cycle;Max_cycle;Signal;HPM_P1;HPM_P2
2023/04/02 00:01:22;;;;;;;7.88;2.70;;;;;;;;;;5015814;27;88483;-80
2023/04/02 00:03:58;;;;;;;5.35;2.50;;;;;;;;;;5025873;28;88224;-80
2023/04/02 00:06:32;;;;;;;4.93;2.35;;;;;;;;;;5024052;27;88692;-81
2023/04/02 00:09:01;;;;;;;6.22;2.72;;;;;;;;;;5026940;27;88901;-81
2023/04/02 00:11:34;;;;;;;6.28;2.40;;;;;;;;;;5011046;27;88249;-81
2023/04/02 00:14:01;;;;;;;6.60;2.75;;;;;;;;;;5021042;28;88674;-81
2023/04/02 00:16:28;;;;;;;6.07;2.50;;;;;;;;;;5019246;28;87545;-81
2023/04/02 00:18:56;;;;;;;5.90;2.78;;;;;;;;;;5021957;27;87524;-80
2023/04/02 00:21:24;;;;;;;7.20;3.05;;;;;;;;;;5022328;27;88512;-81
2023/04/02 00:23:52;;;;;;;7.97;2.78;;;;;;;;;;5024550;28;89799;-81
2023/04/02 00:26:20;;;;;;;7.22;3.08;;;;;;;;;;5021846;28;88794;-81
2023/04/02 00:28:47;;;;;;;8.95;2.80;;;;;;;;;;5004887;28;87672;-81
2023/04/02 00:31:14;;;;;;;6.25;2.55;;;;;;;;;;5019520;27;87896;-81
2023/04/02 00:33:41;;;;;;;6.93;2.70;;;;;;;;;;5023649;27;88679;-79
2023/04/02 00:36:08;;;;;;;7.35;3.00;;;;;;;;;;5015237;27;88090;-80
2023/04/02 00:38:34;;;;;;;6.15;2.50;;;;;;;;;;5020335;28;87992;-80
2023/04/02 00:41:02;;;;;;;5.65;2.75;;;;;;;;;;5012474;28;87558;-79
2023/04/02 00:43:35;;;;;;;6.32;2.55;;;;;;;;;;5017975;28;92658;-78
2023/04/02 00:46:04;;;;;;;7.20;3.00;;;;;;;;;;5004609;28;90603;-79
2023/04/02 00:48:30;;;;;;;7.70;2.40;;;;;;;;;;5013774;28;89497;-79
2023/04/02 00:51:00;;;;;;;6.13;2.70;;;;;;;;;;5021990;28;88874;-79
2023/04/02 00:53:28;;;;;;;7.10;3.13;;;;;;;;;;5042548;27;88874;-79
2023/04/02 00:55:56;;;;;;;6.95;3.00;;;;;;;;;;5038630;28;90172;-80
2023/04/02 00:58:27;;;;;;;9.27;3.08;;;;;;;;;;5018274;28;90578;-80
2023/04/02 01:00:54;;;;;;;8.63;3.42;;;;;;;;;;5001367;28;94814;-80
2023/04/02 01:03:27;;;;;;;7.72;2.78;;;;;;;;;;5019202;28;87651;-79
2023/04/02 01:06:09;;;;;;;7.85;2.90;;;;;;;;;;5001991;28;89989;-80
2023/04/02 01:09:05;;;;;;;6.55;3.10;;;;;;;;;;5020688;28;90700;-80
2023/04/02 01:11:50;;;;;;;9.07;2.88;;;;;;;;;;5000164;28;94783;-80
2023/04/02 01:14:37;;;;;;;7.47;3.28;;;;;;;;;;5033044;27;89325;-79
2023/04/02 01:17:17;;;;;;;8.48;3.00;;;;;;;;;;5014181;28;95065;-80
2023/04/02 01:19:57;;;;;;;6.95;3.10;;;;;;;;;;5017940;28;92321;-80
2023/04/02 01:22:35;;;;;;;7.90;3.15;;;;;;;;;;5020464;28;90123;-79
2023/04/02 01:25:05;;;;;;;5.78;2.95;;;;;;;;;;5025586;28;88786;-79
2023/04/02 01:27:38;;;;;;;6.82;2.83;;;;;;;;;;5014502;28;92651;-79
2023/04/02 01:30:06;;;;;;;6.25;2.88;;;;;;;;;;4989471;28;89657;-80
2023/04/02 01:32:33;;;;;;;7.15;2.80;;;;;;;;;;5002984;28;87033;-80
2023/04/02 01:35:00;;;;;;;8.32;3.40;;;;;;;;;;5002955;28;88801;-81
2023/04/02 01:37:43;;;;;;;7.97;3.00;;;;;;;;;;5000089;28;87851;-81
2023/04/02 01:40:16;;;;;;;7.60;3.13;;;;;;;;;;5002189;28;88674;-81
2023/04/02 01:43:02;;;;;;;7.43;2.95;;;;;;;;;;5003605;28;90236;-81
2023/04/02 01:45:33;;;;;;;7.10;3.17;;;;;;;;;;5042091;27;90427;-80
2023/04/02 01:48:04;;;;;;;5.80;2.47;;;;;;;;;;5041238;28;90002;-80
2023/04/02 01:50:35;;;;;;;7.55;2.72;;;;;;;;;;5042416;27;88841;-79
2023/04/02 01:53:04;;;;;;;6.43;2.83;;;;;;;;;;5020687;28;88796;-79
2023/04/02 01:55:33;;;;;;;7.35;2.67;;;;;;;;;;5036643;28;93248;-79
2023/04/02 01:58:01;;;;;;;7.30;3.50;;;;;;;;;;5039962;27;89312;-80
2023/04/02 02:00:29;;;;;;;7.05;2.80;;;;;;;;;;5040427;28;89067;-79
2023/04/02 02:02:58;;;;;;;8.90;3.42;;;;;;;;;;5041183;28;91153;-79
2023/04/02 02:05:25;;;;;;;7.60;2.95;;;;;;;;;;5034380;27;89764;-79
2023/04/02 02:07:55;;;;;;;9.40;3.47;;;;;;;;;;5028674;28;89139;-80
2023/04/02 02:10:26;;;;;;;8.10;3.60;;;;;;;;;;5054020;27;88319;-78
2023/04/02 02:12:53;;;;;;;8.35;3.75;;;;;;;;;;5033692;28;88455;-80
2023/04/02 02:15:20;;;;;;;6.70;3.22;;;;;;;;;;5036349;28;90388;-80
2023/04/02 02:17:48;;;;;;;7.50;3.55;;;;;;;;;;5035779;27;88062;-80
2023/04/02 02:20:15;;;;;;;7.90;3.42;;;;;;;;;;5042606;27;88301;-80
2023/04/02 02:22:46;;;;;;;7.63;3.10;;;;;;;;;;5029140;28;90126;-80
2023/04/02 02:25:14;;;;;;;6.03;2.40;;;;;;;;;;5041931;27;89284;-81
2023/04/02 02:27:45;;;;;;;10.68;2.45;;;;;;;;;;5030935;27;88181;-79
2023/04/02 02:30:19;;;;;;;5.28;2.28;;;;;;;;;;5041903;28;88725;-79
2023/04/02 02:32:48;;;;;;;7.47;2.50;;;;;;;;;;5044246;28;89700;-78
2023/04/02 02:35:19;;;;;;;8.23;2.40;;;;;;;;;;5036049;27;88008;-78
2023/04/02 02:37:51;;;;;;;7.38;2.40;;;;;;;;;;5046784;28;88313;-79
2023/04/02 02:40:25;;;;;;;9.27;2.40;;;;;;;;;;5045724;27;88399;-78
2023/04/02 02:42:55;;;;;;;6.07;2.40;;;;;;;;;;5033720;28;90203;-79
2023/04/02 02:45:25;;;;;;;5.13;2.28;;;;;;;;;;5042956;27;87974;-79
2023/04/02 02:47:53;;;;;;;5.65;2.40;;;;;;;;;;5044401;28;90583;-78
2023/04/02 02:50:25;;;;;;;6.85;2.20;;;;;;;;;;5023830;28;91182;-79
2023/04/02 02:52:54;;;;;;;5.22;2.50;;;;;;;;;;5043686;28;88061;-78
2023/04/02 02:55:22;;;;;;;6.53;2.92;;;;;;;;;;5042452;27;91118;-80
2023/04/02 02:58:05;;;;;;;6.65;2.60;;;;;;;;;;5043724;28;91176;-80
2023/04/02 03:00:39;;;;;;;6.07;2.65;;;;;;;;;;5042651;28;94737;-78
2023/04/02 03:03:08;;;;;;;6.47;2.90;;;;;;;;;;5041263;27;89884;-78
2023/04/02 03:05:36;;;;;;;5.50;2.40;;;;;;;;;;5027159;27;89225;-79
2023/04/02 03:08:17;;;;;;;6.32;2.78;;;;;;;;;;5036309;28;88177;-79
2023/04/02 03:10:54;;;;;;;5.78;2.42;;;;;;;;;;5039956;27;87953;-79
2023/04/02 03:13:23;;;;;;;6.93;3.08;;;;;;;;;;5037351;27;87827;-79
2023/04/02 03:15:53;;;;;;;6.88;2.90;;;;;;;;;;5043538;27;89267;-80
2023/04/02 03:18:34;;;;;;;16.58;3.05;;;;;;;;;;5029626;27;88643;-79
2023/04/02 03:21:06;;;;;;;10.35;2.83;;;;;;;;;;5031551;27;88812;-79
2023/04/02 03:23:35;;;;;;;5.88;2.67;;;;;;;;;;5042299;27;94513;-79
2023/04/02 03:26:08;;;;;;;8.40;2.85;;;;;;;;;;4991758;28;89049;-80
2023/04/02 03:28:44;;;;;;;7.63;2.60;;;;;;;;;;5020561;28;89899;-81
2023/04/02 03:31:17;;;;;;;7.25;2.60;;;;;;;;;;5035803;27;88283;-81
2023/04/02 03:33:49;;;;;;;7.70;2.65;;;;;;;;;;5038443;27;89667;-81
2023/04/02 03:36:17;;;;;;;6.95;2.60;;;;;;;;;;5042786;27;90632;-81
2023/04/02 03:38:48;;;;;;;7.68;2.60;;;;;;;;;;5043437;28;90699;-81
2023/04/02 03:41:20;;;;;;;8.02;3.00;;;;;;;;;;5038152;27;88809;-81
2023/04/02 03:43:49;;;;;;;6.95;2.60;;;;;;;;;;5023780;28;90581;-79
2023/04/02 03:46:25;;;;;;;7.45;2.70;;;;;;;;;;5039039;28;91438;-82
2023/04/02 03:48:57;;;;;;;5.50;2.63;;;;;;;;;;5042771;27;89750;-80
2023/04/02 03:51:51;;;;;;;6.32;2.70;;;;;;;;;;5043566;27;88348;-81
2023/04/02 03:54:18;;;;;;;6.57;2.60;;;;;;;;;;5044368;27;87653;-80
2023/04/02 03:56:46;;;;;;;6.97;2.42;;;;;;;;;;5039809;27;90642;-80
2023/04/02 03:59:38;;;;;;;5.88;2.80;;;;;;;;;;5021978;27;89494;-80
2023/04/02 04:02:09;;;;;;;6.85;3.05;;;;;;;;;;5009986;28;90049;-80
2023/04/02 04:04:39;;;;;;;5.70;2.47;;;;;;;;;;5039098;27;88872;-80
2023/04/02 04:07:15;;;;;;;7.03;2.60;;;;;;;;;;5040392;27;88266;-79
2023/04/02 04:09:44;;;;;;;6.53;2.80;;;;;;;;;;5008066;28;89390;-79
2023/04/02 04:12:26;;;;;;;7.25;3.00;;;;;;;;;;5014619;28;91094;-80
2023/04/02 04:15:20;;;;;;;7.30;3.30;;;;;;;;;;5039592;28;88134;-80
2023/04/02 04:17:52;;;;;;;7.10;3.10;;;;;;;;;;5019693;28;92850;-80
2023/04/02 04:20:28;;;;;;;6.10;2.75;;;;;;;;;;4996218;28;88395;-80
2023/04/02 04:23:07;;;;;;;5.63;2.70;;;;;;;;;;5020475;28;89226;-80
2023/04/02 04:25:35;;;;;;;6.28;2.72;;;;;;;;;;5035383;28;94351;-79
2023/04/02 04:28:28;;;;;;;6.63;3.00;;;;;;;;;;4986899;28;90825;-79
2023/04/02 04:31:02;;;;;;;6.30;2.78;;;;;;;;;;4991793;28;87563;-79
2023/04/02 04:33:41;;;;;;;7.78;3.17;;;;;;;;;;5005690;28;95612;-80
2023/04/02 04:36:20;;;;;;;8.27;3.00;;;;;;;;;;5031279;28;88806;-80
2023/04/02 04:38:54;;;;;;;7.85;2.95;;;;;;;;;;5041710;28;90257;-80
2023/04/02 04:41:21;;;;;;;;;;;;;;;;;;5033738;27;87951;-79
2023/04/02 04:43:58;;;;;;;5.82;2.72;;;;;;;;;;4986710;28;89804;-80
2023/04/02 04:46:37;;;;;;;5.90;2.70;;;;;;;;;;5012879;28;87661;-78
2023/04/02 04:49:17;;;;;;;5.35;2.80;;;;;;;;;;5021695;27;90905;-78
2023/04/02 04:51:46;;;;;;;6.95;2.60;;;;;;;;;;5018269;28;89937;-79
2023/04/02 04:54:14;;;;;;;6.40;2.63;;;;;;;;;;5020924;28;90792;-79
2023/04/02 04:56:48;;;;;;;7.45;3.42;;;;;;;;;;5018026;28;89334;-80
2023/04/02 04:59:23;;;;;;;7.43;3.08;;;;;;;;;;5001076;28;89756;-80
2023/04/02 05:01:58;;;;;;;6.50;2.53;;;;;;;;;;5010141;28;91287;-80
2023/04/02 05:04:39;;;;;;;6.50;2.80;;;;;;;;;;5013887;28;89607;-81
2023/04/02 05:07:12;;;;;;;6.05;2.83;;;;;;;;;;5009320;28;91924;-80
2023/04/02 05:09:57;;;;;;;6.03;2.90;;;;;;;;;;5010015;28;90457;-80
2023/04/02 05:12:24;;;;;;;5.82;2.75;;;;;;;;;;5011052;28;89334;-80
2023/04/02 05:14:55;;;;;;;5.20;2.53;;;;;;;;;;5023121;27;88037;-80
2023/04/02 05:17:38;;;;;;;4.88;2.38;;;;;;;;;;5002013;27;88438;-81
2023/04/02 05:20:08;;;;;;;6.60;2.40;;;;;;;;;;5041494;28;90212;-81
2023/04/02 05:22:55;;;;;;;6.47;2.50;;;;;;;;;;5041551;28;89918;-80
2023/04/02 05:25:22;;;;;;;6.72;2.72;;;;;;;;;;5033727;27;89070;-80
2023/04/02 05:27:51;;;;;;;8.50;2.80;;;;;;;;;;5011064;27;89797;-80
2023/04/02 05:30:18;;;;;;;5.72;2.60;;;;;;;;;;5000301;28;91625;-80
2023/04/02 05:32:49;;;;;;;6.43;2.55;;;;;;;;;;5015476;28;89531;-80
2023/04/02 05:35:18;;;;;;;6.13;2.60;;;;;;;;;;5035262;27;90398;-80
2023/04/02 05:37:46;;;;;;;6.30;2.42;;;;;;;;;;5029816;28;90894;-80
2023/04/02 05:40:20;;;;;;;6.45;2.42;;;;;;;;;;5026611;28;88263;-80
2023/04/02 05:42:49;;;;;;;5.93;2.33;;;;;;;;;;5030029;28;90172;-80
2023/04/02 05:45:42;;;;;;;5.25;2.30;;;;;;;;;;5039962;27;90144;-81
2023/04/02 05:48:11;;;;;;;5.50;2.20;;;;;;;;;;5026309;28;90509;-80
2023/04/02 05:50:42;;;;;;;7.85;2.05;;;;;;;;;;5028576;27;88248;-80
2023/04/02 05:53:20;;;;;;;6.35;2.20;;;;;;;;;;5031800;27;89731;-80
2023/04/02 05:55:54;;;;;;;4.70;1.92;;;;;;;;;;5039642;27;89069;-80
2023/04/02 05:58:45;;;;;;;4.85;2.10;;;;;;;;;;5034567;27;91086;-81
2023/04/02 06:01:20;;;;;;;4.47;1.92;;;;;;;;;;5000453;27;89759;-80
2023/04/02 06:03:55;;;;;;;4.93;2.00;;;;;;;;;;5043261;28;90848;-81
2023/04/02 06:06:25;;;;;;;5.55;2.10;;;;;;;;;;5031561;28;88595;-80
2023/04/02 06:08:56;;;;;;;6.43;1.77;;;;;;;;;;5032902;27;88246;-80
2023/04/02 06:11:29;;;;;;;4.45;1.90;;;;;;;;;;5017271;28;90681;-79
2023/04/02 06:13:57;;;;;;;5.78;1.88;;;;;;;;;;5017073;28;89839;-79
2023/04/02 06:16:29;;;;;;;5.82;2.00;;;;;;;;;;5007320;28;89779;-80
2023/04/02 06:18:56;;;;;;;7.88;1.60;;;;;;;;;;5006385;28;90756;-80
2023/04/02 06:21:24;;;;;;;4.78;1.77;;;;;;;;;;5016767;27;89875;-80
2023/04/02 06:24:00;;;;;;;6.60;1.63;;;;;;;;;;5014441;28;90092;-79
2023/04/02 06:26:34;;;;;;;5.82;1.90;;;;;;;;;;5025595;28;91012;-79
2023/04/02 06:29:19;;;;;;;4.45;1.63;;;;;;;;;;5016818;28;90721;-79
2023/04/02 06:31:47;;;;;;;4.03;1.60;;;;;;;;;;5013292;28;95073;-79
2023/04/02 06:34:18;;;;;;;5.00;1.92;;;;;;;;;;5019389;28;89910;-79
2023/04/02 06:37:34;;;;;;;4.47;1.70;;;;;;;;;;5012918;27;95314;-80
2023/04/02 06:40:27;;;;;;;4.78;1.63;;;;;;;;;;5030980;28;90091;-80
2023/04/02 06:42:58;;;;;;;5.95;1.50;;;;;;;;;;5014291;28;90302;-79
2023/04/02 06:45:50;;;;;;;5.35;1.90;;;;;;;;;;5032685;27;93572;-79
2023/04/02 06:48:30;;;;;;;4.70;1.65;;;;;;;;;;5010839;28;91572;-79
2023/04/02 06:51:05;;;;;;;5.60;1.67;;;;;;;;;;5018665;28;88054;-79
2023/04/02 06:53:37;;;;;;;9.10;1.77;;;;;;;;;;5010474;28;92504;-79
2023/04/02 06:56:23;;;;;;;6.65;2.10;;;;;;;;;;5018555;28;87824;-81
2023/04/02 06:58:50;;;;;;;4.80;1.42;;;;;;;;;;5003387;28;90783;-81
2023/04/02 07:01:21;;;;;;;3.85;1.60;;;;;;;;;;5036606;27;91486;-81
2023/04/02 07:03:47;;;;;;;8.27;1.88;;;;;;;;;;5032702;28;89079;-82
2023/04/02 07:06:23;;;;;;;6.50;1.98;;;;;;;;;;5016325;28;87718;-82
2023/04/02 07:08:52;;;;;;;8.77;1.73;;;;;;;;;;5011627;28;90289;-83
2023/04/02 07:11:21;;;;;;;4.97;1.80;;;;;;;;;;5001249;28;87775;-83
2023/04/02 07:13:50;;;;;;;5.65;1.80;;;;;;;;;;5011600;28;91859;-82
2023/04/02 07:16:24;;;;;;;4.20;1.58;;;;;;;;;;5017100;28;88097;-82
2023/04/02 07:18:51;;;;;;;4.63;1.70;;;;;;;;;;5022503;28;90944;-82
2023/04/02 07:21:18;;;;;;;5.35;1.83;;;;;;;;;;5021623;27;91248;-82
2023/04/02 07:23:45;;;;;;;5.00;1.80;;;;;;;;;;5023575;28;89970;-82
2023/04/02 07:26:13;;;;;;;5.68;2.08;;;;;;;;;;5027118;27;88068;-81
2023/04/02 07:28:39;;;;;;;5.63;1.90;;;;;;;;;;5021447;28;89096;-81
2023/04/02 07:31:16;;;;;;;7.07;1.90;;;;;;;;;;5022022;27;87159;-80
2023/04/02 07:33:43;;;;;;;5.28;1.67;;;;;;;;;;5045342;28;89446;-81
2023/04/02 07:36:14;;;;;;;4.90;1.80;;;;;;;;;;5043707;27;88075;-81
2023/04/02 07:38:41;;;;;;;7.20;2.10;;;;;;;;;;5043105;28;88794;-80
2023/04/02 07:41:08;;;;;;;4.88;2.10;;;;;;;;;;5041161;27;88441;-80
2023/04/02 07:43:34;;;;;;;6.00;1.90;;;;;;;;;;5019801;27;87943;-80
2023/04/02 07:46:01;;;;;;;4.78;2.00;;;;;;;;;;5019215;27;88151;-81
2023/04/02 07:48:28;;;;;;;9.77;1.90;;;;;;;;;;5028457;27;88578;-81
2023/04/02 07:50:54;;;;;;;5.88;1.80;;;;;;;;;;5041228;27;88065;-80
2023/04/02 07:53:32;;;;;;;7.13;2.10;;;;;;;;;;5023575;27;88195;-82
2023/04/02 07:56:01;;;;;;;4.07;1.77;;;;;;;;;;5059102;27;87403;-80
2023/04/02 07:58:28;;;;;;;5.50;2.00;;;;;;;;;;5001978;28;90344;-81
2023/04/02 08:00:55;;;;;;;6.80;1.85;;;;;;;;;;5047319;27;90569;-81
2023/04/02 08:03:22;;;;;;;6.40;2.00;;;;;;;;;;5022292;27;88971;-81
2023/04/02 08:05:50;;;;;;;4.95;1.90;;;;;;;;;;5015508;27;88376;-80
2023/04/02 08:08:16;;;;;;;5.15;2.10;;;;;;;;;;5013454;28;89164;-80
2023/04/02 08:10:43;;;;;;;5.57;2.15;;;;;;;;;;5016706;28;89607;-80
2023/04/02 08:13:09;;;;;;;5.22;1.90;;;;;;;;;;5007412;28;88953;-81
2023/04/02 08:15:36;;;;;;;6.38;2.00;;;;;;;;;;5021327;28;90205;-80
2023/04/02 08:18:03;;;;;;;4.72;1.90;;;;;;;;;;5026465;28;87904;-81
2023/04/02 08:20:30;;;;;;;5.90;2.20;;;;;;;;;;5033809;28;89040;-81
2023/04/02 08:22:57;;;;;;;10.05;1.83;;;;;;;;;;5041027;27;88240;-81
2023/04/02 08:25:23;;;;;;;3.40;1.63;;;;;;;;;;5012374;27;87890;-80
2023/04/02 08:27:50;;;;;;;4.07;1.90;;;;;;;;;;5006301;28;88878;-80
2023/04/02 08:30:16;;;;;;;4.75;1.80;;;;;;;;;;5019994;27;87857;-81
2023/04/02 08:32:43;;;;;;;4.55;1.80;;;;;;;;;;5017367;28;88032;-81
2023/04/02 08:35:10;;;;;;;4.95;2.00;;;;;;;;;;5022699;27;88574;-80
2023/04/02 08:37:37;;;;;;;6.63;1.90;;;;;;;;;;5022341;27;87900;-80
2023/04/02 08:40:06;;;;;;;4.10;1.55;;;;;;;;;;5014657;27;88043;-80
2023/04/02 08:42:35;;;;;;;4.53;1.80;;;;;;;;;;5015974;28;87819;-80
2023/04/02 08:45:15;;;;;;;4.93;1.70;;;;;;;;;;5023333;28;88267;-79
2023/04/02 08:47:52;;;;;;;6.70;2.05;;;;;;;;;;5021033;28;92703;-80
2023/04/02 08:50:18;;;;;;;5.75;1.98;;;;;;;;;;5015783;28;87818;-81
2023/04/02 08:52:45;;;;;;;5.90;1.95;;;;;;;;;;5020840;28;88496;-80
2023/04/02 08:55:26;;;;;;;5.65;1.60;;;;;;;;;;5012591;27;88165;-80
2023/04/02 08:57:55;;;;;;;5.93;1.77;;;;;;;;;;5004886;28;87556;-79
2023/04/02 09:00:25;;;;;;;4.38;1.73;;;;;;;;;;5040143;28;90982;-79
2023/04/02 09:02:55;;;;;;;4.40;1.55;;;;;;;;;;5017912;28;88496;-80
2023/04/02 09:05:30;;;;;;;5.88;1.80;;;;;;;;;;5018671;28;88694;-80
2023/04/02 09:07:58;;;;;;;5.68;2.00;;;;;;;;;;5017055;28;87823;-80
2023/04/02 09:10:36;;;;;;;3.88;1.40;;;;;;;;;;5001652;28;87341;-83
2023/04/02 09:13:04;;;;;;;4.28;1.48;;;;;;;;;;5018094;28;87704;-83
2023/04/02 09:15:32;;;;;;;3.50;1.50;;;;;;;;;;5021132;27;92900;-82
2023/04/02 09:18:05;;;;;;;4.45;1.38;;;;;;;;;;5008540;28;88570;-82
2023/04/02 09:20:32;;;;;;;2.58;1.20;;;;;;;;;;5013492;28;88098;-83
2023/04/02 09:22:58;;;;;;;3.72;1.30;;;;;;;;;;5005905;28;91222;-84
2023/04/02 09:25:27;;;;;;;3.17;1.20;;;;;;;;;;5004410;28;88549;-83
2023/04/02 09:27:54;;;;;;;2.97;1.27;;;;;;;;;;5031935;28;88334;-83
2023/04/02 09:30:28;;;;;;;4.55;1.50;;;;;;;;;;5012881;28;87605;-84
2023/04/02 09:32:59;;;;;;;37.45;3.42;;;;;;;;;;5008164;28;87857;-84
2023/04/02 09:35:27;;;;;;;10.90;1.65;;;;;;;;;;5003642;28;87539;-83
2023/04/02 09:38:05;;;;;;;11.77;1.80;;;;;;;;;;5003394;28;87753;-83
2023/04/02 09:40:41;;;;;;;10.00;2.03;;;;;;;;;;5015447;28;88005;-83
2023/04/02 09:43:12;;;;;;;8.55;1.70;;;;;;;;;;5006263;28;88833;-83
2023/04/02 09:45:39;;;;;;;6.78;1.25;;;;;;;;;;5005740;28;87723;-82
2023/04/02 09:48:36;;;;;;;6.50;1.63;;;;;;;;;;5001583;28;91530;-83
2023/04/02 09:51:03;;;;;;;4.10;1.30;;;;;;;;;;5002911;28;88104;-82
2023/04/02 09:53:32;;;;;;;5.55;1.25;;;;;;;;;;5021476;28;95072;-82
2023/04/02 09:56:25;;;;;;;3.28;1.20;;;;;;;;;;5022704;28;87992;-84
2023/04/02 09:59:12;;;;;;;13.07;1.98;;;;;;;;;;5031309;28;87866;-85
2023/04/02 10:01:40;;;;;;;25.85;2.88;;;;;;;;;;5012895;28;92369;-84
2023/04/02 10:04:25;;;;;;;59.88;5.07;;;;;;;;;;5022015;28;90597;-84
2023/04/02 10:06:52;;;;;;;;;;;;;;;;;;5014961;28;87911;-84
2023/04/02 10:09:25;;;;;;;32.45;2.92;;;;;;;;;;5006953;28;93297;-89
2023/04/02 10:11:52;;;;;;;14.77;2.40;;;;;;;;;;5023963;28;87801;-88
2023/04/02 10:14:25;;;;;;;11.88;1.70;;;;;;;;;;5007945;27;88569;-88
2023/04/02 10:17:10;;;;;;;13.10;1.67;;;;;;;;;;5015373;28;89209;-88
2023/04/02 10:19:39;;;;;;;13.43;1.70;;;;;;;;;;5014010;28;91654;-87
2023/04/02 10:22:11;;;;;;;12.45;1.85;;;;;;;;;;5004954;28;88347;-89
2023/04/02 10:24:38;;;;;;;7.30;1.65;;;;;;;;;;5032681;27;88348;-89
2023/04/02 10:27:17;;;;;;;8.93;1.40;;;;;;;;;;4989012;28;89511;-86
2023/04/02 10:30:04;;;;;;;4.38;1.00;;;;;;;;;;5019343;28;89631;-89
2023/04/02 10:32:38;;;;;;;7.30;1.30;;;;;;;;;;5006441;28;87699;-89
2023/04/02 10:35:10;;;;;;;8.13;1.20;;;;;;;;;;5000198;28;89862;-86
2023/04/02 10:37:39;;;;;;;3.80;1.20;;;;;;;;;;4992967;28;88734;-89
2023/04/02 10:40:09;;;;;;;3.90;1.17;;;;;;;;;;5012133;28;87983;-87
2023/04/02 10:42:42;;;;;;;6.10;1.23;;;;;;;;;;5010401;28;90380;-88
2023/04/02 10:45:27;;;;;;;7.00;1.00;;;;;;;;;;5027892;27;90364;-84
2023/04/02 10:48:03;;;;;;;4.57;1.10;;;;;;;;;;5018002;28;88523;-82
2023/04/02 10:50:56;;;;;;;6.90;1.20;;;;;;;;;;5026306;28;87980;-83
2023/04/02 10:53:30;;;;;;;5.00;1.13;;;;;;;;;;4990272;28;87564;-83
2023/04/02 10:56:00;;;;;;;8.40;1.30;;;;;;;;;;5022284;28;87805;-82
2023/04/02 10:58:28;;;;;;;4.07;1.20;;;;;;;;;;5012178;28;90599;-83
2023/04/02 11:01:00;;;;;;;4.65;1.00;;;;;;;;;;5037259;28;89265;-82
2023/04/02 11:03:35;;;;;;;5.47;1.10;;;;;;;;;;4989054;28;90653;-82
2023/04/02 11:06:13;;;;;;;4.88;1.05;;;;;;;;;;5006974;28;88363;-83
2023/04/02 11:08:44;;;;;;;3.78;1.10;;;;;;;;;;5028946;28;87929;-84
2023/04/02 11:11:13;;;;;;;3.30;1.20;;;;;;;;;;5023270;27;88060;-84
2023/04/02 11:13:42;;;;;;;2.90;1.00;;;;;;;;;;5006421;28;88267;-83
2023/04/02 11:16:11;;;;;;;3.22;1.00;;;;;;;;;;5008022;28;88030;-82
2023/04/02 11:18:37;;;;;;;3.75;1.00;;;;;;;;;;5006264;28;87633;-83
2023/04/02 11:21:24;;;;;;;4.07;1.38;;;;;;;;;;5005208;28;87861;-83
2023/04/02 11:23:55;;;;;;;3.70;0.93;;;;;;;;;;5036850;27;92495;-83
2023/04/02 11:26:31;;;;;;;5.85;1.08;;;;;;;;;;5016821;28;89040;-83
2023/04/02 11:29:04;;;;;;;3.17;1.00;;;;;;;;;;5002632;28;89683;-83
2023/04/02 11:31:32;;;;;;;1.85;0.93;;;;;;;;;;5015068;28;92236;-83
2023/04/02 11:33:58;;;;;;;3.75;1.08;;;;;;;;;;5024712;28;88371;-83
2023/04/02 11:36:43;;;;;;;4.10;1.35;;;;;;;;;;5024165;28;87915;-83
2023/04/02 11:39:10;;;;;;;3.03;1.00;;;;;;;;;;5015459;28;88486;-83
2023/04/02 11:42:00;;;;;;;3.80;1.00;;;;;;;;;;5017216;27;87838;-83
2023/04/02 11:44:26;;;;;;;4.57;0.90;;;;;;;;;;5000824;28;90866;-83
2023/04/02 11:47:13;;;;;;;3.42;0.90;;;;;;;;;;5025242;28;88272;-83
2023/04/02 11:49:55;;;;;;;2.75;0.95;;;;;;;;;;5025456;27;91171;-84
2023/04/02 11:52:42;;;;;;;5.60;0.95;;;;;;;;;;5013154;28;90600;-84
2023/04/02 11:55:14;;;;;;;2.25;0.80;;;;;;;;;;5022431;27;88467;-83
2023/04/02 11:57:43;;;;;;;2.15;0.90;;;;;;;;;;5023630;28;87903;-83
2023/04/02 12:00:12;;;;;;;2.88;1.00;;;;;;;;;;5025099;28;88535;-84
2023/04/02 12:02:47;;;;;;;2.65;0.85;;;;;;;;;;5027692;28;88545;-82
2023/04/02 12:05:18;;;;;;;2.70;1.00;;;;;;;;;;5041793;27;88127;-80
2023/04/02 12:07:45;;;;;;;4.28;1.17;;;;;;;;;;5028068;28;89503;-81
2023/04/02 12:10:19;;;;;;;3.40;1.00;;;;;;;;;;5011864;28;87334;-81
2023/04/02 12:12:46;;;;;;;1.45;0.85;;;;;;;;;;5021174;28;87723;-81
2023/04/02 12:15:31;;;;;;;3.20;0.90;;;;;;;;;;5023928;28;88606;-81
2023/04/02 12:18:24;;;;;;;3.10;0.98;;;;;;;;;;5030540;28;88723;-81
2023/04/02 12:20:52;;;;;;;0.82;0.70;;;;;;;;;;5043251;27;89086;-81
2023/04/02 12:23:20;;;;;;;2.85;0.90;;;;;;;;;;5037424;28;89776;-81
2023/04/02 12:25:53;;;;;;;2.15;0.93;;;;;;;;;;5023572;28;89260;-81
2023/04/02 12:28:21;;;;;;;2.30;1.02;;;;;;;;;;5018693;28;88242;-80
2023/04/02 12:30:48;;;;;;;1.85;0.90;;;;;;;;;;5037185;28;87741;-81
2023/04/02 12:33:16;;;;;;;3.63;0.90;;;;;;;;;;5044171;27;88480;-81
2023/04/02 12:35:43;;;;;;;1.40;0.80;;;;;;;;;;5024674;28;90067;-81
2023/04/02 12:38:29;;;;;;;1.55;0.80;;;;;;;;;;5025060;28;87858;-80
2023/04/02 12:40:57;;;;;;;2.13;0.90;;;;;;;;;;5013521;28;88402;-80
2023/04/02 12:43:24;;;;;;;1.30;0.90;;;;;;;;;;5022959;27;89895;-81
2023/04/02 12:45:51;;;;;;;2.33;1.00;;;;;;;;;;5008915;28;89061;-81
2023/04/02 12:48:18;;;;;;;1.33;0.90;;;;;;;;;;5027387;27;88924;-81
2023/04/02 12:50:45;;;;;;;2.38;0.93;;;;;;;;;;5036194;27;87834;-81
2023/04/02 12:53:18;;;;;;;1.75;0.73;;;;;;;;;;5036336;27;87853;-81
2023/04/02 12:55:47;;;;;;;2.92;0.98;;;;;;;;;;5007282;28;90818;-81
2023/04/02 12:58:28;;;;;;;1.35;0.80;;;;;;;;;;5014162;28;88289;-81
2023/04/02 13:01:10;;;;;;;2.35;1.00;;;;;;;;;;5040144;27;88057;-80
2023/04/02 13:03:36;;;;;;;1.20;0.70;;;;;;;;;;5023857;28;92654;-81
2023/04/02 13:06:16;;;;;;;3.30;0.80;;;;;;;;;;5031888;27;88011;-80
2023/04/02 13:08:42;;;;;;;3.75;1.00;;;;;;;;;;5034256;27;89120;-81
2023/04/02 13:11:09;;;;;;;2.50;0.80;;;;;;;;;;5045706;27;88220;-80
2023/04/02 13:13:37;;;;;;;2.00;1.00;;;;;;;;;;5044295;27;87921;-81
2023/04/02 13:16:15;;;;;;;2.70;1.00;;;;;;;;;;5044031;27;88063;-81
2023/04/02 13:18:44;;;;;;;2.75;0.90;;;;;;;;;;5044241;27;87922;-80
2023/04/02 13:21:13;;;;;;;1.65;0.80;;;;;;;;;;5035356;27;88295;-80
2023/04/02 13:23:40;;;;;;;1.55;0.80;;;;;;;;;;5034196;27;88269;-81
2023/04/02 13:26:12;;;;;;;2.85;0.88;;;;;;;;;;5033782;27;87316;-81
2023/04/02 13:28:38;;;;;;;1.70;0.80;;;;;;;;;;5043737;27;89164;-81
2023/04/02 13:31:05;;;;;;;1.00;0.63;;;;;;;;;;5042374;27;90903;-80
2023/04/02 13:33:31;;;;;;;2.03;0.80;;;;;;;;;;5043525;27;88292;-81
2023/04/02 13:35:58;;;;;;;3.00;1.00;;;;;;;;;;5039736;27;88571;-81
2023/04/02 13:38:25;;;;;;;1.73;0.82;;;;;;;;;;5042849;28;87899;-81
2023/04/02 13:40:51;;;;;;;1.80;0.90;;;;;;;;;;5041505;28;88494;-81
2023/04/02 13:43:19;;;;;;;2.30;0.88;;;;;;;;;;5041490;27;88342;-81
2023/04/02 13:45:50;;;;;;;2.25;0.82;;;;;;;;;;5043295;27;87558;-81
2023/04/02 13:48:17;;;;;;;2.60;1.00;;;;;;;;;;5037977;28;90902;-80
2023/04/02 13:50:45;;;;;;;1.98;1.00;;;;;;;;;;5032620;27;87189;-82
2023/04/02 13:53:20;;;;;;;2.80;0.70;;;;;;;;;;5041471;27;87649;-82
2023/04/02 13:55:47;;;;;;;2.88;0.80;;;;;;;;;;5035284;27;88301;-82
2023/04/02 13:58:14;;;;;;;6.60;1.13;;;;;;;;;;5032848;28;88914;-80
2023/04/02 14:00:41;;;;;;;5.97;0.93;;;;;;;;;;5024315;27;90572;-80
2023/04/02 14:03:10;;;;;;;2.17;0.90;;;;;;;;;;5041459;27;90136;-79
2023/04/02 14:05:37;;;;;;;3.33;1.00;;;;;;;;;;5038633;27;89500;-80
2023/04/02 14:08:08;;;;;;;2.20;0.80;;;;;;;;;;5036037;27;88054;-80
2023/04/02 14:10:55;;;;;;;1.95;0.82;;;;;;;;;;5037885;27;88266;-81
2023/04/02 14:13:25;;;;;;;3.15;1.00;;;;;;;;;;5041773;27;87534;-80
2023/04/02 14:15:59;;;;;;;3.00;1.00;;;;;;;;;;5039821;28;90095;-82
2023/04/02 14:18:28;;;;;;;3.75;0.90;;;;;;;;;;5029030;27;87844;-81
2023/04/02 14:21:16;;;;;;;3.17;1.23;;;;;;;;;;5032861;28;88140;-81
2023/04/02 14:24:06;;;;;;;2.83;0.90;;;;;;;;;;5035218;27;93965;-81
2023/04/02 14:26:45;;;;;;;3.35;1.10;;;;;;;;;;5038693;27;87650;-81
2023/04/02 14:29:29;;;;;;;2.53;1.00;;;;;;;;;;5035687;27;88191;-81
2023/04/02 14:32:17;;;;;;;2.55;1.10;;;;;;;;;;5039619;27;88006;-81
2023/04/02 14:34:58;;;;;;;8.27;2.75;;;;;;;;;;5022803;27;87671;-81
2023/04/02 14:37:28;;;;;;;11.73;5.63;;;;;;;;;;5013129;27;88033;-82
2023/04/02 14:40:01;;;;;;;20.10;11.60;;;;;;;;;;5024257;28;89721;-81
2023/04/02 14:42:31;;;;;;;21.00;13.00;;;;;;;;;;5015257;28;88804;-80
2023/04/02 14:45:01;;;;;;;22.60;13.77;;;;;;;;;;5025086;27;88884;-80
2023/04/02 14:47:35;;;;;;;20.00;13.55;;;;;;;;;;5018770;28;91304;-80
2023/04/02 14:50:06;;;;;;;22.17;12.57;;;;;;;;;;5015385;28;88975;-80
2023/04/02 14:52:33;;;;;;;22.08;13.77;;;;;;;;;;5039746;27;88882;-81
2023/04/02 14:55:02;;;;;;;19.60;13.15;;;;;;;;;;5023124;27;88996;-81
2023/04/02 14:57:31;;;;;;;22.83;13.40;;;;;;;;;;5031477;27;88858;-81
2023/04/02 15:00:15;;;;;;;20.05;13.00;;;;;;;;;;5035329;28;89504;-81
2023/04/02 15:02:51;;;;;;;23.42;12.15;;;;;;;;;;5038545;28;92981;-81
2023/04/02 15:05:18;;;;;;;17.00;10.52;;;;;;;;;;5036408;27;88698;-81
2023/04/02 15:07:50;;;;;;;18.35;11.70;;;;;;;;;;5026412;27;89205;-81
2023/04/02 15:10:30;;;;;;;16.83;11.20;;;;;;;;;;5016927;27;90019;-81
2023/04/02 15:12:58;;;;;;;18.08;11.70;;;;;;;;;;5035055;27;88331;-81